Time;durP1;ratioP1;P1;durP2;ratioP2;P2;SDS_P1;SDS_P2;PMS_P1;PMS_P2;Temp;Humidity;BMP_temperature;BMP_pressure;BME280_temperature;BME280_humidity;BME280_pressure;Samples;Min_cycle;Max_cycle;Signal;HPM_P1;HPM_P2
2023/05/04 00:00:42;;;;;;;22.20;10.13;;;7.30;99.90;;;;;;4988428;28;20038;-72
2023/05/04 00:03:07;;;;;;;24.23;10.40;;;7.30;99.90;;;;;;4986718;28;20022;-71
2023/05/04 00:05:33;;;;;;;21.05;9.40;;;7.20;99.90;;;;;;4989274;28;20042;-71
2023/05/04 00:07:59;;;;;;;22.65;11.10;;;7.20;99.90;;;;;;4988157;28;20031;-71
2023/05/04 00:10:26;;;;;;;23.92;10.32;;;7.20;99.90;;;;;;4989673;28;20061;-71
2023/05/04 00:12:52;;;;;;;22.55;10.18;;;7.20;99.90;;;;;;4988354;28;20102;-71
2023/05/04 00:15:18;;;;;;;19.10;10.02;;;7.10;99.90;;;;;;4987087;28;20082;-71
2023/05/04 00:17:43;;;;;;;20.73;10.07;;;7.10;99.90;;;;;;4988081;28;20018;-71
2023/05/04 00:20:10;;;;;;;21.50;10.48;;;7.10;99.90;;;;;;4987529;28;20037;-71
2023/05/04 00:22:35;;;;;;;21.10;9.80;;;7.00;99.90;;;;;;4988137;28;20101;-71
2023/05/04 00:25:01;;;;;;;28.77;10.45;;;7.00;99.90;;;;;;4991274;28;20065;-72
2023/05/04 00:27:26;;;;;;;24.13;9.55;;;7.00;99.90;;;;;;4973008;28;20035;-72
2023/05/04 00:29:52;;;;;;;21.83;9.27;;;7.00;99.90;;;;;;4973502;28;20081;-71
2023/05/04 00:32:18;;;;;;;22.13;9.38;;;7.00;99.90;;;;;;4990142;28;20026;-72
2023/05/04 00:34:43;;;;;;;19.40;9.35;;;6.90;99.90;;;;;;4990787;28;20027;-72
2023/05/04 00:37:09;;;;;;;19.23;8.25;;;6.90;99.90;;;;;;4990690;28;20025;-71
2023/05/04 00:39:34;;;;;;;28.45;9.52;;;6.90;99.90;;;;;;4973325;28;20042;-72
2023/05/04 00:42:00;;;;;;;17.02;8.45;;;6.90;99.90;;;;;;4990277;28;20445;-71
2023/05/04 00:44:26;;;;;;;19.58;8.63;;;6.90;99.90;;;;;;4972196;28;20023;-72
2023/05/04 00:46:52;;;;;;;18.70;9.18;;;6.90;99.90;;;;;;4990662;28;20057;-71
2023/05/04 00:49:18;;;;;;;18.73;9.43;;;6.90;99.90;;;;;;4972646;28;20035;-72
2023/05/04 00:51:44;;;;;;;22.98;8.85;;;6.80;99.90;;;;;;4990340;28;20027;-71
2023/05/04 00:54:10;;;;;;;19.13;8.43;;;6.80;99.90;;;;;;4990505;28;20042;-71
2023/05/04 00:56:41;;;;;;;16.45;7.97;;;6.80;99.90;;;;;;4990058;28;20023;-70
2023/05/04 00:59:06;;;;;;;22.27;9.27;;;6.80;99.90;;;;;;4972503;28;20040;-73
2023/05/04 01:01:32;;;;;;;18.95;9.13;;;6.80;99.90;;;;;;4990441;28;20129;-70
2023/05/04 01:03:58;;;;;;;18.23;8.55;;;6.80;99.90;;;;;;4989630;28;20030;-71
2023/05/04 01:06:49;;;;;;;20.05;8.68;;;6.70;99.90;;;;;;4973300;28;20041;-72
2023/05/04 01:09:24;;;;;;;22.60;9.35;;;6.70;99.90;;;;;;4994473;28;20719;-70
2023/05/04 01:12:03;;;;;;;20.85;9.35;;;6.70;99.90;;;;;;4995683;28;20411;-71
2023/05/04 01:14:29;;;;;;;22.40;8.88;;;6.70;99.90;;;;;;4996923;28;20502;-70
2023/05/04 01:16:59;;;;;;;20.92;9.13;;;6.70;99.90;;;;;;4996432;28;20027;-71
2023/05/04 01:19:26;;;;;;;20.05;9.05;;;6.70;99.90;;;;;;4996009;28;20030;-70
2023/05/04 01:21:52;;;;;;;17.15;9.15;;;6.60;99.90;;;;;;4996726;28;20027;-71
2023/05/04 01:24:18;;;;;;;22.77;9.93;;;6.60;99.90;;;;;;4996516;28;20033;-71
2023/05/04 01:26:45;;;;;;;15.98;8.50;;;6.60;99.90;;;;;;4978501;28;20388;-71
2023/05/04 01:29:21;;;;;;;25.52;9.15;;;6.50;99.90;;;;;;4978724;28;20019;-71
2023/05/04 01:31:48;;;;;;;19.35;9.23;;;6.50;99.90;;;;;;4996049;28;20134;-71
2023/05/04 01:34:16;;;;;;;19.88;8.85;;;6.40;99.90;;;;;;4996374;28;20031;-69
2023/05/04 01:36:43;;;;;;;19.95;9.63;;;6.40;99.90;;;;;;4978701;28;20027;-70
2023/05/04 01:39:08;;;;;;;24.75;9.95;;;6.40;99.90;;;;;;4994746;28;20018;-71
2023/05/04 01:41:35;;;;;;;19.70;9.20;;;6.40;99.90;;;;;;4996008;28;20045;-71
2023/05/04 01:44:01;;;;;;;22.80;10.20;;;6.40;99.90;;;;;;4996949;28;20026;-70
2023/05/04 01:46:27;;;;;;;22.02;9.48;;;6.40;99.90;;;;;;4995566;28;20031;-70
2023/05/04 01:48:52;;;;;;;18.42;9.52;;;6.40;99.90;;;;;;4978838;28;20121;-71
2023/05/04 01:51:18;;;;;;;24.65;10.00;;;6.40;99.90;;;;;;4996253;28;20038;-70
2023/05/04 01:53:44;;;;;;;20.60;9.38;;;6.40;99.90;;;;;;4995905;28;20034;-70
2023/05/04 01:56:09;;;;;;;19.73;9.02;;;6.40;99.90;;;;;;4996553;28;20038;-70
2023/05/04 01:58:35;;;;;;;20.27;9.38;;;6.30;99.90;;;;;;4995485;28;20023;-71
2023/05/04 02:01:02;;;;;;;20.67;9.93;;;6.30;99.90;;;;;;4977973;28;20105;-70
2023/05/04 02:03:27;;;;;;;27.98;10.63;;;6.30;99.90;;;;;;4976451;28;20023;-70
2023/05/04 02:05:53;;;;;;;26.98;9.85;;;6.30;99.90;;;;;;4994559;28;20094;-70
2023/05/04 02:08:19;;;;;;;23.02;9.90;;;6.30;99.90;;;;;;4991627;28;20088;-69
2023/05/04 02:10:44;;;;;;;25.75;10.20;;;6.20;99.90;;;;;;4992273;28;20098;-69
2023/05/04 02:13:10;;;;;;;20.63;10.38;;;6.20;99.90;;;;;;4994005;28;20050;-70
2023/05/04 02:15:35;;;;;;;26.77;10.52;;;6.20;99.90;;;;;;4992842;28;20027;-70
2023/05/04 02:18:01;;;;;;;22.30;9.68;;;6.10;99.90;;;;;;4975023;28;20037;-70
2023/05/04 02:20:27;;;;;;;22.38;10.25;;;6.10;99.90;;;;;;4991054;28;20086;-70
2023/05/04 02:22:52;;;;;;;27.45;10.80;;;6.20;99.90;;;;;;4972689;28;20031;-69
2023/05/04 02:25:18;;;;;;;22.88;10.70;;;6.10;99.90;;;;;;4973161;28;20053;-72
2023/05/04 02:27:43;;;;;;;23.00;10.05;;;6.10;99.90;;;;;;4971570;28;20023;-69
2023/05/04 02:30:09;;;;;;;20.63;10.70;;;6.00;99.90;;;;;;4988232;28;20489;-69
2023/05/04 02:32:35;;;;;;;23.15;10.10;;;6.00;99.90;;;;;;4990135;28;20129;-69
2023/05/04 02:35:01;;;;;;;23.48;10.15;;;6.10;99.90;;;;;;4990782;28;20055;-70
2023/05/04 02:37:27;;;;;;;18.10;10.23;;;6.00;99.90;;;;;;4988360;28;20027;-70
2023/05/04 02:39:52;;;;;;;23.55;10.30;;;6.00;99.90;;;;;;4991527;28;20042;-70
2023/05/04 02:42:18;;;;;;;26.02;11.10;;;5.90;99.90;;;;;;4972314;28;20102;-69
2023/05/04 02:44:43;;;;;;;23.88;11.23;;;6.00;99.90;;;;;;4991007;28;20026;-69
2023/05/04 02:47:09;;;;;;;19.77;10.15;;;5.90;99.90;;;;;;4988290;28;20034;-70
2023/05/04 02:49:35;;;;;;;22.77;10.65;;;5.90;99.90;;;;;;4991044;28;20033;-69
2023/05/04 02:52:00;;;;;;;20.02;10.35;;;5.90;99.90;;;;;;4972234;28;20061;-71
2023/05/04 02:54:26;;;;;;;21.67;10.65;;;5.90;99.90;;;;;;4971835;28;20098;-70
2023/05/04 02:56:51;;;;;;;29.92;12.10;;;5.90;99.90;;;;;;4970810;28;20022;-70
2023/05/04 02:59:17;;;;;;;24.17;10.85;;;5.80;99.90;;;;;;4990778;28;20029;-69
2023/05/04 03:01:42;;;;;;;28.35;11.05;;;5.80;99.90;;;;;;4987992;28;20092;-70
2023/05/04 03:04:08;;;;;;;25.27;10.88;;;5.80;99.90;;;;;;4988397;28;20023;-72
2023/05/04 03:06:35;;;;;;;22.95;10.27;;;5.80;99.90;;;;;;4988548;28;20023;-70
2023/05/04 03:09:00;;;;;;;23.40;11.30;;;5.70;99.90;;;;;;4990350;28;20019;-70
2023/05/04 03:11:26;;;;;;;29.73;11.88;;;5.70;99.90;;;;;;4987585;28;20031;-69
2023/05/04 03:13:52;;;;;;;21.77;11.32;;;5.90;99.90;;;;;;4988114;28;20682;-71
2023/05/04 03:16:17;;;;;;;27.85;11.48;;;5.70;99.90;;;;;;4988415;28;20066;-71
2023/05/04 03:18:43;;;;;;;25.80;11.48;;;5.70;99.90;;;;;;4971338;28;20120;-70
2023/05/04 03:21:08;;;;;;;25.88;11.00;;;5.70;99.90;;;;;;4987970;28;20552;-69
2023/05/04 03:23:35;;;;;;;25.25;11.25;;;5.70;99.90;;;;;;4972931;28;20026;-71
2023/05/04 03:26:00;;;;;;;23.73;10.63;;;5.70;99.90;;;;;;4988716;28;20023;-71
2023/05/04 03:28:26;;;;;;;23.88;10.52;;;5.60;99.90;;;;;;4970464;28;20104;-70
2023/05/04 03:30:51;;;;;;;26.30;10.63;;;5.60;99.90;;;;;;4971700;28;20031;-70
2023/05/04 03:33:17;;;;;;;22.45;11.13;;;5.60;99.90;;;;;;4970219;28;20085;-69
2023/05/04 03:35:42;;;;;;;25.08;11.23;;;5.60;99.90;;;;;;4971672;28;20019;-69
2023/05/04 03:38:09;;;;;;;26.15;11.90;;;5.60;99.90;;;;;;4972369;28;20031;-69
2023/05/04 03:40:35;;;;;;;25.48;10.65;;;5.60;99.90;;;;;;4987192;28;20533;-71
2023/05/04 03:43:01;;;;;;;28.55;11.77;;;5.70;99.90;;;;;;4970528;28;20019;-70
2023/05/04 03:45:27;;;;;;;25.13;10.13;;;5.50;99.90;;;;;;4989505;28;20031;-70
2023/05/04 03:47:54;;;;;;;25.42;9.95;;;5.50;99.90;;;;;;4988030;28;20109;-69
2023/05/04 03:50:21;;;;;;;26.83;10.38;;;5.50;99.90;;;;;;4989142;28;20017;-70
2023/05/04 03:52:46;;;;;;;29.58;11.10;;;5.50;99.90;;;;;;4971104;28;20030;-69
2023/05/04 03:55:12;;;;;;;20.90;9.43;;;5.60;99.90;;;;;;4972111;28;20031;-70
2023/05/04 03:57:37;;;;;;;27.13;10.55;;;5.60;99.90;;;;;;4989244;28;20033;-71
2023/05/04 04:00:04;;;;;;;21.23;10.32;;;5.50;99.90;;;;;;4989677;28;20101;-72
2023/05/04 04:02:30;;;;;;;22.45;9.77;;;5.60;99.90;;;;;;4971878;28;20160;-71
2023/05/04 04:04:56;;;;;;;22.77;10.32;;;5.60;99.90;;;;;;4988654;28;20030;-70
2023/05/04 04:07:21;;;;;;;26.10;9.98;;;5.60;99.90;;;;;;4989123;28;20125;-71
2023/05/04 04:09:47;;;;;;;22.75;9.88;;;5.60;99.90;;;;;;4988294;28;20079;-70
2023/05/04 04:12:14;;;;;;;24.90;10.40;;;5.60;99.90;;;;;;4987556;28;20112;-72
2023/05/04 04:14:40;;;;;;;21.55;10.20;;;5.60;99.90;;;;;;4971448;28;20431;-70
2023/05/04 04:17:06;;;;;;;27.85;10.95;;;5.60;99.90;;;;;;4969946;28;20023;-71
2023/05/04 04:19:31;;;;;;;22.65;10.25;;;5.60;99.90;;;;;;4990297;28;20778;-70
2023/05/04 04:21:58;;;;;;;27.23;10.60;;;5.70;99.90;;;;;;4970827;28;20045;-71
2023/05/04 04:24:24;;;;;;;25.00;10.38;;;5.70;99.90;;;;;;4988417;28;20023;-71
2023/05/04 04:26:50;;;;;;;27.92;9.77;;;5.70;99.90;;;;;;4987108;28;20026;-70
2023/05/04 04:29:16;;;;;;;25.63;11.10;;;5.80;99.90;;;;;;4989457;28;20038;-71
2023/05/04 04:31:42;;;;;;;21.58;9.57;;;5.70;99.90;;;;;;4987652;28;20038;-71
2023/05/04 04:34:07;;;;;;;21.50;9.55;;;5.80;99.90;;;;;;4970204;28;20093;-70
2023/05/04 04:36:33;;;;;;;27.73;9.68;;;5.90;99.90;;;;;;4986224;28;20027;-70
2023/05/04 04:38:59;;;;;;;24.90;10.23;;;5.90;99.90;;;;;;4988560;28;20230;-71
2023/05/04 04:41:25;;;;;;;23.40;9.18;;;5.90;99.90;;;;;;4986918;28;20470;-70
2023/05/04 04:43:50;;;;;;;24.67;9.25;;;5.90;99.90;;;;;;4968706;28;20022;-70
2023/05/04 04:46:16;;;;;;;23.67;8.60;;;5.90;99.90;;;;;;4971942;28;20033;-69
2023/05/04 04:48:41;;;;;;;26.20;9.60;;;5.90;99.90;;;;;;4987839;28;20038;-69
2023/05/04 04:51:11;;;;;;;21.95;9.20;;;6.00;99.90;;;;;;4990022;28;20031;-69
2023/05/04 04:53:37;;;;;;;18.90;9.10;;;6.00;99.90;;;;;;4989884;28;20085;-69
2023/05/04 04:56:04;;;;;;;20.60;9.00;;;6.10;99.90;;;;;;4990365;28;20034;-69
2023/05/04 04:58:31;;;;;;;16.30;8.80;;;6.20;99.90;;;;;;4990088;28;20602;-71
2023/05/04 05:00:57;;;;;;;21.20;8.63;;;6.20;99.90;;;;;;4990414;28;20065;-70
2023/05/04 05:03:23;;;;;;;22.63;9.18;;;6.20;99.90;;;;;;4989849;28;20034;-69
2023/05/04 05:05:48;;;;;;;19.63;9.10;;;6.30;99.90;;;;;;4990059;28;20033;-69
2023/05/04 05:08:15;;;;;;;24.95;9.20;;;6.30;99.90;;;;;;4989957;28;20023;-69
2023/05/04 05:10:41;;;;;;;21.65;9.05;;;6.40;99.90;;;;;;4971822;28;20078;-69
2023/05/04 05:13:07;;;;;;;33.65;12.20;;;6.40;99.90;;;;;;4989534;28;20086;-69
2023/05/04 05:15:33;;;;;;;21.85;8.60;;;6.50;99.90;;;;;;4990000;28;20034;-69
2023/05/04 05:17:59;;;;;;;21.38;9.68;;;6.50;99.90;;;;;;4988384;28;20026;-69
2023/05/04 05:20:25;;;;;;;24.08;8.60;;;6.60;99.90;;;;;;4972357;28;20443;-69
2023/05/04 05:22:50;;;;;;;23.98;9.25;;;6.60;99.90;;;;;;4989741;28;20731;-70
2023/05/04 05:25:16;;;;;;;25.40;8.57;;;6.70;99.90;;;;;;4969047;28;20588;-69
2023/05/04 05:27:42;;;;;;;20.25;8.00;;;6.80;99.90;;;;;;4988749;28;20065;-69
2023/05/04 05:30:08;;;;;;;24.83;8.30;;;6.80;99.90;;;;;;4989102;28;20027;-70
2023/05/04 05:32:33;;;;;;;16.55;7.85;;;6.90;99.90;;;;;;4987941;28;20038;-69
2023/05/04 05:35:00;;;;;;;17.33;7.65;;;6.90;99.90;;;;;;4985093;28;20034;-70
2023/05/04 05:37:26;;;;;;;22.48;7.38;;;7.00;99.90;;;;;;4987670;28;20088;-69
2023/05/04 05:39:52;;;;;;;16.25;7.22;;;7.10;99.90;;;;;;4987767;28;20034;-70
2023/05/04 05:42:18;;;;;;;16.67;7.50;;;7.20;99.90;;;;;;4985712;28;20049;-69
2023/05/04 05:44:43;;;;;;;21.50;7.13;;;7.30;99.90;;;;;;4987164;28;20027;-69
2023/05/04 05:47:09;;;;;;;13.65;6.75;;;7.30;99.90;;;;;;4969050;28;20130;-70
2023/05/04 05:49:35;;;;;;;15.65;7.05;;;7.40;99.90;;;;;;4980195;28;20057;-71
2023/05/04 05:52:01;;;;;;;14.30;6.88;;;7.40;99.90;;;;;;4966303;28;20092;-70
2023/05/04 05:54:30;;;;;;;13.18;6.47;;;7.50;99.90;;;;;;4989284;28;20023;-69
2023/05/04 05:56:55;;;;;;;11.55;6.63;;;7.60;99.90;;;;;;4992335;28;20058;-69
2023/05/04 05:59:21;;;;;;;18.52;7.00;;;7.60;99.90;;;;;;4992811;28;20589;-70
2023/05/04 06:01:46;;;;;;;17.70;6.40;;;7.70;99.90;;;;;;4993662;28;20042;-69
2023/05/04 06:04:12;;;;;;;22.15;7.05;;;7.70;99.90;;;;;;4992389;28;20022;-70
2023/05/04 06:06:37;;;;;;;13.63;6.65;;;7.80;99.90;;;;;;4991582;28;20034;-70
2023/05/04 06:09:04;;;;;;;14.68;6.30;;;7.90;99.90;;;;;;4993327;28;20027;-69
2023/05/04 06:11:30;;;;;;;14.25;6.22;;;8.00;99.90;;;;;;4993165;28;20814;-71
2023/05/04 06:13:56;;;;;;;20.17;6.75;;;8.10;99.90;;;;;;4992624;28;20086;-69
2023/05/04 06:16:22;;;;;;;12.13;6.47;;;8.10;99.90;;;;;;4992550;28;20042;-71
2023/05/04 06:18:47;;;;;;;12.55;5.75;;;8.20;99.90;;;;;;4992989;28;20121;-70
2023/05/04 06:21:13;;;;;;;15.32;5.40;;;8.30;99.90;;;;;;4993008;28;20045;-70
2023/05/04 06:23:39;;;;;;;15.57;5.80;;;8.40;99.90;;;;;;4994652;28;20031;-69
2023/05/04 06:26:06;;;;;;;14.18;5.57;;;8.40;99.90;;;;;;4977680;28;20457;-70
2023/05/04 06:28:33;;;;;;;18.65;6.47;;;8.50;99.90;;;;;;4994187;28;20042;-69
2023/05/04 06:30:59;;;;;;;13.70;5.43;;;8.60;99.90;;;;;;4994268;28;20037;-70
2023/05/04 06:33:25;;;;;;;13.75;5.57;;;8.70;99.90;;;;;;4994027;28;20085;-70
2023/05/04 06:35:52;;;;;;;20.00;5.97;;;8.70;99.90;;;;;;4976748;28;20077;-70
2023/05/04 06:38:17;;;;;;;14.82;5.57;;;8.80;99.90;;;;;;4993178;28;20099;-71
2023/05/04 06:40:43;;;;;;;18.20;5.65;;;8.90;99.90;;;;;;4994374;28;20435;-70
2023/05/04 06:43:09;;;;;;;13.50;5.65;;;9.00;99.90;;;;;;4991255;28;20035;-70
2023/05/04 06:45:35;;;;;;;12.88;6.13;;;9.10;99.90;;;;;;4989650;28;20451;-70
2023/05/04 06:48:02;;;;;;;9.80;5.15;;;9.10;99.90;;;;;;4994075;28;20795;-69
2023/05/04 06:50:29;;;;;;;17.60;5.18;;;9.20;99.90;;;;;;4993748;28;20062;-69
2023/05/04 06:53:07;;;;;;;14.60;4.88;;;9.40;99.90;;;;;;4988311;28;20495;-70
2023/05/04 06:55:33;;;;;;;10.98;4.43;;;9.50;99.90;;;;;;4991021;28;20066;-69
2023/05/04 06:57:59;;;;;;;14.70;4.88;;;9.60;99.90;;;;;;4990075;28;20033;-70
2023/05/04 07:00:25;;;;;;;14.75;4.30;;;9.80;99.90;;;;;;4991054;28;20111;-69
2023/05/04 07:02:52;;;;;;;12.52;4.40;;;9.90;99.90;;;;;;4991142;28;20039;-70
2023/05/04 07:05:18;;;;;;;13.63;4.40;;;10.00;99.90;;;;;;4990473;28;20027;-69
2023/05/04 07:07:43;;;;;;;12.52;4.25;;;10.20;99.90;;;;;;4974960;28;20122;-70
2023/05/04 07:10:09;;;;;;;12.73;4.57;;;10.30;99.90;;;;;;4992285;28;20031;-69
2023/05/04 07:12:35;;;;;;;15.23;4.60;;;10.40;99.90;;;;;;4975292;28;20082;-71
2023/05/04 07:15:01;;;;;;;13.25;4.63;;;10.40;99.90;;;;;;4993501;28;20035;-70
2023/05/04 07:17:29;;;;;;;14.10;4.13;;;10.50;99.90;;;;;;4976929;28;20155;-69
2023/05/04 07:19:55;;;;;;;13.95;4.40;;;10.60;99.90;;;;;;4993978;28;20027;-69
2023/05/04 07:22:21;;;;;;;12.93;4.25;;;10.70;99.90;;;;;;4993685;28;20043;-70
2023/05/04 07:24:46;;;;;;;12.35;4.22;;;10.80;99.90;;;;;;4993011;28;20039;-70
2023/05/04 07:27:12;;;;;;;13.63;4.85;;;10.80;99.90;;;;;;4989625;28;20491;-69
2023/05/04 07:29:37;;;;;;;14.85;4.72;;;11.00;99.90;;;;;;4991923;28;20034;-71
2023/05/04 07:32:03;;;;;;;14.43;4.00;;;11.10;99.90;;;;;;4992883;28;20049;-69
2023/05/04 07:34:30;;;;;;;10.35;4.28;;;11.20;99.90;;;;;;4975070;28;20037;-68
2023/05/04 07:36:55;;;;;;;11.80;4.00;;;11.40;99.90;;;;;;4993141;28;20031;-70
2023/05/04 07:39:22;;;;;;;11.77;4.68;;;11.50;99.90;;;;;;4993485;28;20042;-68
2023/05/04 07:41:50;;;;;;;8.95;4.13;;;11.60;99.90;;;;;;4993684;28;20263;-69
2023/05/04 07:44:16;;;;;;;13.25;4.43;;;11.70;99.90;;;;;;4992160;28;20080;-70
2023/05/04 07:46:41;;;;;;;13.63;4.55;;;11.80;99.90;;;;;;4991662;28;20106;-69
2023/05/04 07:49:07;;;;;;;10.82;4.18;;;11.90;99.90;;;;;;4992236;28;20031;-68
2023/05/04 07:51:32;;;;;;;8.93;4.00;;;12.00;99.90;;;;;;4992104;28;20035;-67
2023/05/04 07:53:58;;;;;;;10.80;4.28;;;12.10;99.90;;;;;;4975123;28;20026;-68
2023/05/04 07:56:24;;;;;;;15.50;4.85;;;12.10;99.90;;;;;;4993740;28;20490;-67
2023/05/04 07:58:50;;;;;;;9.18;4.07;;;12.20;99.90;;;;;;4992478;28;20026;-68
2023/05/04 08:01:16;;;;;;;10.35;4.30;;;12.20;99.90;;;;;;4992538;28;20050;-67
2023/05/04 08:03:41;;;;;;;11.05;5.15;;;12.20;99.90;;;;;;4991564;28;20030;-68
2023/05/04 08:06:07;;;;;;;10.73;4.43;;;12.30;99.90;;;;;;4991434;28;20038;-70
2023/05/04 08:08:33;;;;;;;13.63;4.95;;;12.30;99.90;;;;;;4972196;28;20118;-69
2023/05/04 08:10:59;;;;;;;7.45;3.72;;;12.30;99.90;;;;;;4990072;28;20069;-68
2023/05/04 08:13:24;;;;;;;9.70;4.05;;;12.40;99.90;;;;;;4993179;28;20050;-68
2023/05/04 08:15:50;;;;;;;16.08;4.30;;;12.50;99.90;;;;;;4992599;28;20030;-69
2023/05/04 08:18:16;;;;;;;10.80;3.78;;;12.60;99.90;;;;;;4990210;28;20057;-69
2023/05/04 08:20:42;;;;;;;11.48;4.43;;;12.80;99.90;;;;;;4990785;28;20117;-69
2023/05/04 08:23:07;;;;;;;11.15;4.40;;;12.80;99.90;;;;;;4992486;28;20097;-67
2023/05/04 08:25:34;;;;;;;7.63;3.50;;;12.80;99.90;;;;;;4988335;28;20498;-69
2023/05/04 08:28:00;;;;;;;15.98;4.97;;;12.90;99.90;;;;;;4991585;28;20434;-68
2023/05/04 08:30:26;;;;;;;10.50;3.88;;;13.00;99.90;;;;;;4987177;28;20050;-68
2023/05/04 08:32:54;;;;;;;11.40;3.72;;;13.20;99.90;;;;;;4987942;28;20031;-67
2023/05/04 08:35:20;;;;;;;12.80;3.83;;;13.30;99.90;;;;;;4988951;28;20073;-68
2023/05/04 08:37:47;;;;;;;11.30;3.47;;;13.40;99.90;;;;;;4991472;28;20023;-67
2023/05/04 08:40:13;;;;;;;14.55;3.75;;;13.50;99.90;;;;;;4991764;28;20468;-69
2023/05/04 08:42:39;;;;;;;13.02;3.95;;;13.60;99.90;;;;;;4989146;28;20042;-68
2023/05/04 08:45:06;;;;;;;8.40;3.60;;;13.70;99.90;;;;;;4973438;28;20098;-68
2023/05/04 08:47:31;;;;;;;14.05;3.83;;;13.70;99.90;;;;;;4992766;28;20015;-69
2023/05/04 08:49:57;;;;;;;11.50;3.70;;;13.80;99.90;;;;;;4992188;28;20030;-70
2023/05/04 08:52:25;;;;;;;6.32;2.92;;;13.90;99.90;;;;;;4972769;28;20045;-68
2023/05/04 08:54:56;;;;;;;7.78;3.28;;;14.00;99.90;;;;;;4992567;28;20034;-67
2023/05/04 08:57:23;;;;;;;18.65;3.85;;;14.10;99.90;;;;;;4991911;28;20019;-68
2023/05/04 08:59:54;;;;;;;7.03;3.03;;;14.30;99.90;;;;;;4991694;28;20035;-67
2023/05/04 09:02:21;;;;;;;8.40;3.35;;;14.30;99.90;;;;;;4973568;28;20132;-67
2023/05/04 09:04:48;;;;;;;13.13;3.35;;;14.30;99.90;;;;;;4991100;28;20080;-69
2023/05/04 09:07:16;;;;;;;9.40;3.40;;;14.40;99.90;;;;;;4991511;28;20380;-72
2023/05/04 09:09:41;;;;;;;8.27;3.53;;;14.50;99.90;;;;;;4973043;28;20046;-67
2023/05/04 09:12:07;;;;;;;13.75;3.42;;;14.60;99.90;;;;;;4990685;28;20054;-68
2023/05/04 09:14:34;;;;;;;10.35;2.78;;;14.70;99.90;;;;;;4992467;28;20083;-67
2023/05/04 09:17:11;;;;;;;10.57;3.30;;;14.80;99.90;;;;;;4990931;28;20031;-69
2023/05/04 09:19:37;;;;;;;13.95;3.30;;;15.00;99.90;;;;;;4991341;28;20598;-69
2023/05/04 09:22:14;;;;;;;9.65;3.03;;;15.20;99.90;;;;;;4991913;28;20035;-69
2023/05/04 09:24:40;;;;;;;10.98;3.10;;;15.30;99.90;;;;;;4992021;28;20022;-70
2023/05/04 09:27:14;;;;;;;11.75;3.33;;;15.20;99.90;;;;;;4992269;28;20054;-69
2023/05/04 09:29:41;;;;;;;11.57;3.20;;;15.30;99.90;;;;;;4992835;28;20034;-68
2023/05/04 09:32:11;;;;;;;9.85;3.28;;;15.40;99.90;;;;;;4991158;28;20106;-68
2023/05/04 09:34:46;;;;;;;9.63;2.85;;;15.60;99.90;;;;;;4994943;28;20310;-69
2023/05/04 09:37:12;;;;;;;12.88;3.00;;;15.70;99.90;;;;;;4991257;28;20038;-68
2023/05/04 09:39:55;;;;;;;8.93;3.22;;;15.90;99.90;;;;;;4990794;28;20114;-68
2023/05/04 09:42:25;;;;;;;7.55;3.10;;;16.00;99.90;;;;;;4994490;28;20041;-68
2023/05/04 09:45:07;;;;;;;11.75;3.03;;;16.20;99.90;;;;;;4989429;28;20085;-70
2023/05/04 09:47:38;;;;;;;7.13;2.83;;;16.40;99.90;;;;;;4991424;28;20058;-71
2023/05/04 09:50:13;;;;;;;10.88;3.45;;;16.50;99.90;;;;;;4995594;28;20034;-67
2023/05/04 09:52:40;;;;;;;9.70;3.40;;;16.70;99.90;;;;;;4994837;28;20121;-70
2023/05/04 09:55:08;;;;;;;10.57;3.40;;;16.80;99.90;;;;;;4978665;28;20070;-68
2023/05/04 09:57:35;;;;;;;9.63;2.92;;;16.80;99.90;;;;;;4994964;28;20022;-70
2023/05/04 10:00:03;;;;;;;10.07;3.30;;;17.00;99.90;;;;;;4989967;28;20034;-71
2023/05/04 10:02:31;;;;;;;8.85;3.22;;;17.10;99.90;;;;;;4989213;28;20039;-69
2023/05/04 10:04:57;;;;;;;7.60;3.30;;;17.10;99.90;;;;;;4991495;28;20089;-67
2023/05/04 10:07:23;;;;;;;9.57;3.08;;;17.10;99.90;;;;;;4993810;28;20038;-68
2023/05/04 10:09:50;;;;;;;7.40;3.22;;;17.00;99.90;;;;;;4992771;28;20372;-68
2023/05/04 10:12:16;;;;;;;11.40;3.42;;;17.00;99.90;;;;;;4988092;28;20058;-68
2023/05/04 10:14:45;;;;;;;10.18;3.65;;;16.90;99.90;;;;;;4993242;28;20491;-69
2023/05/04 10:17:31;;;;;;;11.40;2.92;;;17.00;99.90;;;;;;4991196;28;20030;-67
2023/05/04 10:20:15;;;;;;;11.23;3.38;;;17.00;99.90;;;;;;4974880;28;20042;-69
2023/05/04 10:23:06;;;;;;;5.55;3.00;;;17.00;99.90;;;;;;4995336;28;20090;-70
2023/05/04 10:25:53;;;;;;;13.45;3.60;;;17.10;99.90;;;;;;4994512;28;20038;-71
2023/05/04 10:28:58;;;;;;;10.55;3.58;;;17.20;99.90;;;;;;4975646;28;20519;-67
2023/05/04 10:31:24;;;;;;;12.00;3.40;;;17.10;99.90;;;;;;4995079;28;20018;-67
2023/05/04 10:33:50;;;;;;;8.85;3.20;;;17.20;99.90;;;;;;4977166;28;20035;-72
2023/05/04 10:36:15;;;;;;;8.90;3.10;;;17.20;99.90;;;;;;4993567;28;20533;-69
2023/05/04 10:38:41;;;;;;;12.75;3.60;;;17.20;99.90;;;;;;4991796;28;20054;-68
2023/05/04 10:41:18;;;;;;;13.77;3.13;;;17.40;99.90;;;;;;4991135;28;20125;-69
2023/05/04 10:43:47;;;;;;;12.32;2.88;;;17.60;99.90;;;;;;4993499;28;20066;-70
2023/05/04 10:46:20;;;;;;;9.68;3.08;;;17.80;99.90;;;;;;4975770;28;20121;-69
2023/05/04 10:48:47;;;;;;;7.25;3.20;;;17.80;99.90;;;;;;4988872;28;20026;-68
2023/05/04 10:51:24;;;;;;;6.80;2.90;;;18.00;99.90;;;;;;4990405;28;20026;-69
2023/05/04 10:53:50;;;;;;;15.25;3.08;;;18.10;99.90;;;;;;4991100;28;20117;-68
2023/05/04 10:56:24;;;;;;;10.88;3.10;;;18.20;99.90;;;;;;4992097;28;20030;-68
2023/05/04 10:58:50;;;;;;;9.35;3.10;;;18.40;99.90;;;;;;4992576;28;20037;-69
2023/05/04 11:01:17;;;;;;;9.57;3.08;;;18.60;99.90;;;;;;4993559;28;20098;-70
2023/05/04 11:03:43;;;;;;;7.05;3.13;;;18.80;99.90;;;;;;4994235;28;20030;-69
2023/05/04 11:06:21;;;;;;;13.57;3.10;;;18.90;99.90;;;;;;4990501;28;20042;-72
2023/05/04 11:08:57;;;;;;;8.45;2.90;;;19.00;99.90;;;;;;4992337;28;20545;-68
2023/05/04 11:11:23;;;;;;;10.60;2.97;;;19.10;99.90;;;;;;4991525;28;20058;-69
2023/05/04 11:13:48;;;;;;;8.35;2.78;;;19.30;99.90;;;;;;4992677;28;20034;-67
2023/05/04 11:16:23;;;;;;;8.30;2.90;;;19.40;99.90;;;;;;4993670;28;20033;-68
2023/05/04 11:18:48;;;;;;;10.75;3.08;;;19.60;99.90;;;;;;4993471;28;20026;-68
2023/05/04 11:21:26;;;;;;;11.80;2.90;;;19.60;99.90;;;;;;4994433;28;20153;-68
2023/05/04 11:23:58;;;;;;;8.13;2.78;;;19.70;99.90;;;;;;4994367;28;20090;-68
2023/05/04 11:26:25;;;;;;;7.32;2.83;;;19.60;99.90;;;;;;4991838;28;20049;-69
2023/05/04 11:28:50;;;;;;;13.93;3.03;;;19.70;99.90;;;;;;4993493;28;20514;-68
2023/05/04 11:31:18;;;;;;;7.40;2.95;;;19.60;99.90;;;;;;4993653;28;20027;-68
2023/05/04 11:33:51;;;;;;;7.50;3.03;;;19.50;99.90;;;;;;4989557;28;20087;-71
2023/05/04 11:36:18;;;;;;;6.57;2.70;;;19.60;99.90;;;;;;4992767;28;20038;-69
2023/05/04 11:38:44;;;;;;;10.23;3.00;;;19.70;99.90;;;;;;4991919;28;20028;-71
2023/05/04 11:41:11;;;;;;;8.95;3.10;;;19.80;99.90;;;;;;4988465;28;20042;-73
2023/05/04 11:43:38;;;;;;;5.65;2.45;;;19.70;99.90;;;;;;4972547;28;20065;-69
2023/05/04 11:46:05;;;;;;;10.43;2.75;;;19.60;99.90;;;;;;4992290;28;20022;-67
2023/05/04 11:48:32;;;;;;;7.82;2.75;;;19.40;99.90;;;;;;4992936;28;20091;-68
2023/05/04 11:50:58;;;;;;;12.13;2.60;;;19.40;99.90;;;;;;4993796;28;20022;-67
2023/05/04 11:53:24;;;;;;;6.20;2.80;;;19.50;99.90;;;;;;4975920;28;20037;-68
2023/05/04 11:55:52;;;;;;;6.63;2.38;;;19.60;99.90;;;;;;4992821;28;20368;-68
2023/05/04 11:58:23;;;;;;;9.27;2.78;;;19.80;99.90;;;;;;4992388;28;20114;-68
2023/05/04 12:00:55;;;;;;;10.25;2.97;;;20.00;99.90;;;;;;4993083;28;20046;-68
2023/05/04 12:03:25;;;;;;;7.20;2.33;;;20.10;99.90;;;;;;4993288;28;20494;-67
2023/05/04 12:05:53;;;;;;;6.70;2.75;;;20.30;99.90;;;;;;4992413;28;20027;-68
2023/05/04 12:08:33;;;;;;;7.60;3.03;;;20.50;99.90;;;;;;4992693;28;20034;-69
2023/05/04 12:11:31;;;;;;;12.43;2.80;;;20.60;99.90;;;;;;4993341;28;20022;-70
2023/05/04 12:14:02;;;;;;;7.95;2.65;;;20.70;99.90;;;;;;4944176;28;20109;-67
2023/05/04 12:16:28;;;;;;;7.40;2.95;;;20.90;99.90;;;;;;4992501;28;20026;-69
2023/05/04 12:19:05;;;;;;;10.68;2.70;;;20.90;99.90;;;;;;4992293;28;20069;-69
2023/05/04 12:21:32;;;;;;;6.05;2.42;;;21.00;99.90;;;;;;4992692;28;20030;-69
2023/05/04 12:23:58;;;;;;;11.35;2.78;;;21.10;99.90;;;;;;4993269;28;20026;-66
2023/05/04 12:26:23;;;;;;;8.77;2.78;;;21.20;99.90;;;;;;4992438;28;20030;-68
2023/05/04 12:28:50;;;;;;;5.13;2.47;;;21.20;99.90;;;;;;4992568;28;20026;-68
2023/05/04 12:31:15;;;;;;;8.27;2.78;;;21.20;99.90;;;;;;4975665;28;20034;-67
2023/05/04 12:33:41;;;;;;;7.18;2.53;;;21.30;99.90;;;;;;4974447;28;20027;-68
2023/05/04 12:36:07;;;;;;;8.60;2.35;;;21.50;99.90;;;;;;4993261;28;20018;-67
2023/05/04 12:38:33;;;;;;;16.45;3.00;;;21.70;99.90;;;;;;4992236;28;20030;-68
2023/05/04 12:41:01;;;;;;;6.93;2.55;;;21.90;99.90;;;;;;4992456;28;20035;-67
2023/05/04 12:43:27;;;;;;;9.38;3.03;;;22.20;99.90;;;;;;4975322;28;20022;-66